North Battleford, Canada
Current Conditions -  °F | °C
As of 5:16 AM on Saturday 20 Dec 2014 (Local Time) from CYQW Reporting Station
Overcast Overcast  
Wind Chill:   Ceiling: 500
Heat Index: 18°   Visibility: 8mi
Dew Point: 16°   Wind: 12mph
Humidity: 93%   Direction: 130°SE
Pressure: 29.75"   Gusts: NA
Location:  52.78°N, 108.3°W
Report Text: CYQW 201116Z AUTO 13010KT 8SM OVC005 M08/M09 A2975 RMK SLP115
Loading
Personal Weather Stations






























Interactive Weather Map New forecast layout! Learn more

10-Day Weather Forecast

Advertisements
Track Severe Weather on mobile